createdAt,value
2019-06-27T00:00:34.737Z,59.34
2019-06-27T00:03:03.768Z,58.98
2019-06-27T00:05:32.307Z,59.25
2019-06-27T00:08:00.561Z,58.80
2019-06-27T00:10:28.839Z,58.75
2019-06-27T00:12:57.073Z,58.90
2019-06-27T00:15:26.260Z,59.03
2019-06-27T00:17:54.716Z,58.87
2019-06-27T00:20:23.200Z,58.60
2019-06-27T00:22:51.867Z,59.11
2019-06-27T00:25:20.595Z,58.73
2019-06-27T00:27:48.847Z,58.26
2019-06-27T00:30:18.108Z,58.30
2019-06-27T00:32:46.674Z,58.42
2019-06-27T00:35:14.846Z,58.36
2019-06-27T00:37:43.292Z,58.66
2019-06-27T00:40:12.109Z,58.87
2019-06-27T00:42:40.333Z,58.57
2019-06-27T00:45:09.498Z,58.72
2019-06-27T00:47:38.482Z,58.72
2019-06-27T00:50:09.036Z,58.80
2019-06-27T00:52:37.271Z,58.48
2019-06-27T00:55:06.724Z,58.58
2019-06-27T00:57:35.086Z,58.39
2019-06-27T01:00:04.170Z,58.20
2019-06-27T01:02:32.662Z,58.18
2019-06-27T01:05:01.386Z,58.18
2019-06-27T01:07:30.560Z,57.99
2019-06-27T01:10:01.286Z,58.23
2019-06-27T01:12:29.737Z,58.14
2019-06-27T01:14:58.601Z,57.89
2019-06-27T01:17:26.857Z,57.69
2019-06-27T01:19:55.680Z,57.94
2019-06-27T01:22:24.585Z,57.66
2019-06-27T01:24:52.824Z,57.60
2019-06-27T01:27:29.951Z,57.75
2019-06-27T01:29:51.460Z,58.01
2019-06-27T01:32:19.968Z,57.88
2019-06-27T01:34:49.841Z,57.94
2019-06-27T01:37:18.066Z,57.87
2019-06-27T01:39:46.366Z,57.49
2019-06-27T01:42:14.924Z,57.80
2019-06-27T01:44:48.606Z,57.79
2019-06-27T01:47:17.221Z,57.50
2019-06-27T01:49:45.466Z,57.41
2019-06-27T01:52:14.165Z,57.35
2019-06-27T01:54:42.933Z,57.61
2019-06-27T01:57:11.421Z,57.64
2019-06-27T01:59:39.598Z,57.98
2019-06-27T02:02:07.879Z,58.03
2019-06-27T02:04:36.107Z,57.90
2019-06-27T02:07:04.767Z,57.81
2019-06-27T02:09:33.608Z,57.52
2019-06-27T02:12:02.603Z,57.96
2019-06-27T02:14:31.402Z,57.72
2019-06-27T02:17:00.154Z,57.80
2019-06-27T02:19:28.413Z,57.61
2019-06-27T02:21:56.598Z,57.32
2019-06-27T02:24:25.788Z,57.79
2019-06-27T02:26:54.646Z,57.59
2019-06-27T02:29:22.877Z,57.63
2019-06-27T02:31:51.948Z,57.58
2019-06-27T02:34:20.900Z,57.55
2019-06-27T02:36:49.901Z,57.48
2019-06-27T02:39:18.194Z,57.38
2019-06-27T02:41:46.375Z,57.23
2019-06-27T02:44:15.365Z,56.92
2019-06-27T02:46:43.591Z,56.86
2019-06-27T02:49:12.819Z,57.04
2019-06-27T02:51:41.625Z,57.00
2019-06-27T02:54:10.400Z,57.17
2019-06-27T02:56:38.932Z,57.15
2019-06-27T02:59:08.544Z,56.92
2019-06-27T03:01:37.601Z,57.17
2019-06-27T03:04:05.882Z,57.08
2019-06-27T03:06:34.016Z,56.89
2019-06-27T03:09:02.340Z,57.37
2019-06-27T03:11:30.599Z,57.02
2019-06-27T03:13:58.932Z,56.74
2019-06-27T03:16:27.107Z,56.71
2019-06-27T03:18:55.447Z,56.99
2019-06-27T03:21:24.295Z,56.76
2019-06-27T03:23:52.510Z,56.79
2019-06-27T03:26:20.687Z,56.89
2019-06-27T03:28:52.710Z,56.81
2019-06-27T03:31:19.043Z,56.94
2019-06-27T03:33:47.387Z,57.00
2019-06-27T03:36:16.088Z,56.89
2019-06-27T03:38:44.573Z,56.25
2019-06-27T03:41:13.522Z,56.63
2019-06-27T03:43:42.002Z,56.64
2019-06-27T03:46:11.845Z,56.36
2019-06-27T03:48:40.689Z,56.10
2019-06-27T03:51:09.163Z,56.00
2019-06-27T03:53:37.456Z,56.30
2019-06-27T03:56:06.309Z,56.11
2019-06-27T03:58:34.439Z,56.50
2019-06-27T04:01:02.686Z,56.58
2019-06-27T04:03:31.324Z,56.90
2019-06-27T04:05:59.444Z,56.81
2019-06-27T04:08:27.618Z,56.92
2019-06-27T04:10:56.580Z,57.07
2019-06-27T04:13:25.313Z,56.86
2019-06-27T04:15:53.809Z,56.58
2019-06-27T04:18:22.542Z,56.61
2019-06-27T04:20:51.451Z,57.32
2019-06-27T04:23:20.073Z,57.07
2019-06-27T04:25:48.852Z,57.01
2019-06-27T04:28:17.074Z,57.18
2019-06-27T04:30:45.804Z,57.17
2019-06-27T04:33:14.369Z,57.21
2019-06-27T04:35:43.161Z,57.71
2019-06-27T04:38:11.589Z,57.44
2019-06-27T04:40:39.904Z,57.27
2019-06-27T04:43:08.123Z,57.32
2019-06-27T04:45:36.267Z,57.05
2019-06-27T04:48:04.902Z,57.05
2019-06-27T04:50:33.187Z,56.91
2019-06-27T04:53:01.314Z,56.89
2019-06-27T04:55:29.484Z,56.87
2019-06-27T04:57:57.622Z,56.85
2019-06-27T05:00:29.304Z,56.89
2019-06-27T05:02:58.457Z,57.31
2019-06-27T05:05:26.709Z,57.25
2019-06-27T05:07:54.982Z,57.08
2019-06-27T05:10:23.684Z,56.59
2019-06-27T05:12:51.812Z,56.61
2019-06-27T05:15:20.555Z,56.25
2019-06-27T05:17:48.829Z,56.32
2019-06-27T05:20:16.970Z,55.76
2019-06-27T05:22:45.938Z,55.47
2019-06-27T05:25:14.477Z,56.02
2019-06-27T05:27:42.772Z,55.86
2019-06-27T05:30:11.752Z,55.69
2019-06-27T05:32:40.450Z,55.60
2019-06-27T05:35:08.913Z,55.30
2019-06-27T05:37:37.252Z,55.29
2019-06-27T05:40:05.889Z,55.01
2019-06-27T05:42:34.624Z,55.28
2019-06-27T05:45:03.882Z,55.01
2019-06-27T05:47:32.405Z,54.41
2019-06-27T05:50:00.961Z,54.42
2019-06-27T05:52:29.396Z,54.48
2019-06-27T05:54:57.701Z,54.51
2019-06-27T05:57:26.008Z,54.67
2019-06-27T05:59:54.292Z,54.91
2019-06-27T06:02:22.701Z,54.68
2019-06-27T06:04:51.119Z,55.10
2019-06-27T06:07:19.494Z,55.40
2019-06-27T06:09:47.878Z,55.48
2019-06-27T06:12:15.986Z,54.86
2019-06-27T06:14:44.151Z,55.38
2019-06-27T06:17:12.354Z,55.74
2019-06-27T06:19:42.354Z,55.51
2019-06-27T06:22:10.568Z,55.25
2019-06-27T06:24:38.998Z,54.90
2019-06-27T06:27:07.190Z,55.43
2019-06-27T06:29:36.112Z,54.83
2019-06-27T06:32:04.806Z,55.20
2019-06-27T06:34:33.665Z,55.58
2019-06-27T06:37:01.786Z,54.81
2019-06-27T06:39:29.930Z,54.36
2019-06-27T06:41:58.569Z,54.40
2019-06-27T06:44:26.824Z,54.34
2019-06-27T06:46:55.058Z,54.08
2019-06-27T06:49:23.213Z,53.90
2019-06-27T06:51:51.396Z,53.65
2019-06-27T06:54:19.605Z,53.77
2019-06-27T06:56:48.062Z,54.25
2019-06-27T06:59:16.339Z,54.40
2019-06-27T07:01:45.822Z,53.77
2019-06-27T07:04:14.142Z,53.71
2019-06-27T07:06:42.669Z,53.91
2019-06-27T07:09:11.459Z,53.79
2019-06-27T07:11:39.704Z,53.81
2019-06-27T07:14:07.932Z,54.09
2019-06-27T07:16:36.476Z,55.07
2019-06-27T07:19:04.871Z,54.84
2019-06-27T07:21:33.126Z,54.47
2019-06-27T07:24:03.286Z,55.08
2019-06-27T07:26:31.810Z,55.33
2019-06-27T07:29:00.309Z,54.88
2019-06-27T07:31:29.135Z,55.38
2019-06-27T07:33:58.270Z,55.17
2019-06-27T07:36:26.804Z,54.42
2019-06-27T07:38:54.967Z,54.58
2019-06-27T07:41:23.409Z,55.01
2019-06-27T07:43:52.271Z,54.70
2019-06-27T07:46:25.622Z,54.93
2019-06-27T07:48:51.122Z,54.82
2019-06-27T07:51:19.741Z,55.51
2019-06-27T07:53:48.558Z,54.59
2019-06-27T07:56:18.325Z,55.64
2019-06-27T07:58:46.826Z,55.91
2019-06-27T08:01:15.323Z,55.21
2019-06-27T08:03:43.658Z,54.85
2019-06-27T08:06:11.860Z,54.92
2019-06-27T08:08:40.506Z,54.77
2019-06-27T08:11:08.754Z,54.60
2019-06-27T08:13:37.043Z,55.23
2019-06-27T08:16:05.179Z,55.07
2019-06-27T08:18:33.372Z,55.09
2019-06-27T08:21:02.182Z,54.86
2019-06-27T08:23:41.065Z,54.86
2019-06-27T08:26:01.156Z,54.93
2019-06-27T08:28:30.331Z,54.22
2019-06-27T08:30:58.648Z,54.95
2019-06-27T08:33:27.175Z,54.98
2019-06-27T08:35:55.548Z,54.28
2019-06-27T08:38:23.694Z,54.92
2019-06-27T08:40:52.138Z,54.83
2019-06-27T08:43:20.617Z,55.20
2019-06-27T08:45:49.996Z,56.05
2019-06-27T08:48:18.786Z,55.20
2019-06-27T08:50:47.274Z,55.21
2019-06-27T08:53:15.574Z,55.04
2019-06-27T08:55:44.704Z,54.75
2019-06-27T08:58:13.708Z,54.89
2019-06-27T09:00:45.618Z,54.70
2019-06-27T09:03:12.851Z,54.96
2019-06-27T09:05:41.111Z,54.75
2019-06-27T09:08:09.959Z,54.85
2019-06-27T09:10:38.186Z,55.06
2019-06-27T09:13:07.111Z,54.60
2019-06-27T09:15:35.307Z,54.84
2019-06-27T09:18:03.866Z,55.33
2019-06-27T09:20:32.294Z,55.84
2019-06-27T09:23:00.711Z,55.89
2019-06-27T09:25:29.557Z,56.97
2019-06-27T09:27:58.153Z,57.07
2019-06-27T09:30:27.200Z,57.46
2019-06-27T09:32:55.329Z,57.65
2019-06-27T09:35:23.863Z,59.79
2019-06-27T09:37:52.704Z,61.10
2019-06-27T09:40:22.595Z,61.81
2019-06-27T09:42:50.727Z,62.32
2019-06-27T09:45:21.068Z,62.32
2019-06-27T09:47:49.974Z,61.42
2019-06-27T09:50:21.519Z,60.45
2019-06-27T09:52:49.222Z,59.11
2019-06-27T09:55:17.819Z,58.67
2019-06-27T09:57:46.194Z,59.16
2019-06-27T10:00:15.463Z,58.86
2019-06-27T10:02:44.494Z,59.58
2019-06-27T10:05:12.976Z,59.66
2019-06-27T10:07:41.392Z,58.10
2019-06-27T10:10:10.937Z,58.60
2019-06-27T10:12:42.832Z,57.76
2019-06-27T10:15:09.749Z,56.79
2019-06-27T10:17:38.632Z,56.69
2019-06-27T10:20:09.204Z,58.00
2019-06-27T10:22:37.485Z,57.80
2019-06-27T10:25:06.513Z,58.55
2019-06-27T10:27:36.446Z,59.11
2019-06-27T10:30:05.835Z,59.47
2019-06-27T10:32:33.960Z,59.40
2019-06-27T10:35:02.118Z,58.94
2019-06-27T10:37:30.618Z,57.85
2019-06-27T10:39:58.791Z,57.63
2019-06-27T10:42:26.972Z,57.38
2019-06-27T10:44:57.537Z,56.48
2019-06-27T10:47:25.782Z,56.74
2019-06-27T10:49:54.027Z,56.20
2019-06-27T10:52:22.170Z,55.29
2019-06-27T10:54:50.374Z,54.50
2019-06-27T10:57:18.887Z,55.17
2019-06-27T10:59:47.185Z,54.17
2019-06-27T11:02:15.615Z,53.42
2019-06-27T11:04:44.132Z,53.42
2019-06-27T11:07:12.324Z,53.42
2019-06-27T11:09:41.271Z,52.75
2019-06-27T11:12:09.456Z,53.09
2019-06-27T11:14:37.994Z,53.34
2019-06-27T11:17:07.401Z,53.75
2019-06-27T11:19:51.185Z,53.89
2019-06-27T11:22:06.470Z,55.10
2019-06-27T11:24:34.738Z,54.84
2019-06-27T11:27:02.976Z,53.66
2019-06-27T11:29:31.808Z,53.49
2019-06-27T11:32:00.367Z,53.14
2019-06-27T11:34:28.532Z,53.55
2019-06-27T11:36:56.661Z,52.29
2019-06-27T11:39:24.839Z,52.65
2019-06-27T11:41:53.500Z,52.91
2019-06-27T11:44:22.182Z,53.65
2019-06-27T11:46:50.431Z,52.71
2019-06-27T11:49:19.245Z,52.13
2019-06-27T11:51:48.101Z,52.21
2019-06-27T11:54:16.260Z,51.73
2019-06-27T11:56:44.395Z,52.37
2019-06-27T11:59:12.736Z,52.34
2019-06-27T12:01:41.105Z,52.26
2019-06-27T12:04:09.434Z,52.35
2019-06-27T12:06:37.608Z,52.24
2019-06-27T12:09:05.932Z,52.00
2019-06-27T12:11:34.130Z,52.04
2019-06-27T12:14:02.616Z,53.14
2019-06-27T12:16:31.449Z,52.09
2019-06-27T12:18:59.963Z,52.09
2019-06-27T12:21:28.645Z,52.06
2019-06-27T12:23:57.536Z,51.83
2019-06-27T12:26:25.834Z,52.19
2019-06-27T12:28:54.323Z,52.63
2019-06-27T12:31:22.742Z,51.61
2019-06-27T12:34:06.494Z,52.14
2019-06-27T12:36:22.777Z,50.97
2019-06-27T12:38:51.307Z,51.70
2019-06-27T12:41:19.621Z,52.35
2019-06-27T12:43:48.027Z,53.22
2019-06-27T12:46:17.749Z,53.79
2019-06-27T12:48:46.333Z,53.93
2019-06-27T12:51:14.771Z,53.22
2019-06-27T12:53:45.104Z,52.99
2019-06-27T12:56:14.163Z,53.37
2019-06-27T12:58:42.604Z,52.48
2019-06-27T13:01:10.948Z,51.51
2019-06-27T13:03:39.148Z,51.93
2019-06-27T13:06:08.055Z,51.67
2019-06-27T13:08:36.240Z,52.12
2019-06-27T13:11:04.955Z,52.07
2019-06-27T13:13:33.384Z,52.93
2019-06-27T13:16:01.887Z,52.57
2019-06-27T13:18:30.064Z,51.41
2019-06-27T13:20:58.894Z,50.44
2019-06-27T13:23:27.186Z,49.77
2019-06-27T13:25:55.347Z,48.40
2019-06-27T13:28:23.501Z,49.13
2019-06-27T13:30:51.952Z,49.08
2019-06-27T13:33:20.078Z,48.42
2019-06-27T13:35:49.157Z,48.40
2019-06-27T13:38:17.510Z,49.38
2019-06-27T13:40:45.660Z,49.33
2019-06-27T13:43:13.991Z,49.13
2019-06-27T13:45:42.140Z,49.22
2019-06-27T13:48:10.413Z,48.66
2019-06-27T13:50:38.572Z,48.67
2019-06-27T13:53:06.867Z,48.92
2019-06-27T13:55:35.096Z,48.52
2019-06-27T13:58:03.226Z,49.08
2019-06-27T14:00:42.881Z,48.64
2019-06-27T14:03:12.318Z,48.38
2019-06-27T14:05:40.709Z,48.63
2019-06-27T14:08:08.840Z,48.67
2019-06-27T14:10:38.632Z,48.19
2019-06-27T14:13:06.911Z,48.65
2019-06-27T14:15:35.141Z,48.54
2019-06-27T14:18:03.499Z,48.24
2019-06-27T14:20:31.663Z,47.90
2019-06-27T14:22:59.817Z,48.20
2019-06-27T14:25:28.163Z,48.56
2019-06-27T14:27:56.421Z,48.39
2019-06-27T14:30:24.729Z,48.12
2019-06-27T14:32:53.517Z,47.91
2019-06-27T14:35:22.223Z,47.05
2019-06-27T14:37:50.399Z,47.24
2019-06-27T14:40:18.896Z,47.67
2019-06-27T14:42:48.062Z,48.39
2019-06-27T14:45:16.760Z,47.75
2019-06-27T14:47:45.520Z,48.03
2019-06-27T14:50:13.685Z,48.49
2019-06-27T14:52:41.865Z,49.28
2019-06-27T14:55:10.617Z,49.73
2019-06-27T14:57:38.912Z,50.89
2019-06-27T15:00:08.301Z,51.27
2019-06-27T15:02:36.523Z,51.23
2019-06-27T15:05:05.730Z,51.24
2019-06-27T15:07:34.116Z,51.22
2019-06-27T15:10:02.454Z,51.87
2019-06-27T15:12:35.534Z,51.17
2019-06-27T15:15:02.225Z,51.91
2019-06-27T15:17:30.465Z,51.35
2019-06-27T15:19:59.548Z,52.11
2019-06-27T15:22:28.073Z,51.63
2019-06-27T15:24:57.824Z,52.01
2019-06-27T15:27:25.968Z,51.94
2019-06-27T15:29:54.445Z,51.64
2019-06-27T15:32:22.652Z,51.60
2019-06-27T15:34:51.137Z,52.09
2019-06-27T15:37:19.578Z,51.97
2019-06-27T15:39:48.035Z,51.52
2019-06-27T15:42:16.761Z,50.94
2019-06-27T15:44:46.837Z,51.07
2019-06-27T15:47:15.015Z,50.50
2019-06-27T15:49:43.180Z,51.08
2019-06-27T15:52:11.343Z,50.86
2019-06-27T15:54:40.582Z,50.38
2019-06-27T15:57:22.935Z,50.38
2019-06-27T15:59:51.387Z,51.09
2019-06-27T16:02:20.323Z,51.00
2019-06-27T16:04:50.261Z,51.16
2019-06-27T16:07:18.471Z,51.18
2019-06-27T16:09:47.146Z,51.63
2019-06-27T16:12:16.314Z,52.09
2019-06-27T16:14:51.929Z,51.65
2019-06-27T16:17:20.400Z,52.01
2019-06-27T16:19:49.027Z,52.34
2019-06-27T16:22:17.305Z,52.87
2019-06-27T16:24:45.616Z,53.78
2019-06-27T16:27:13.784Z,53.76
2019-06-27T16:29:42.006Z,53.65
2019-06-27T16:32:10.510Z,53.14
2019-06-27T16:34:38.651Z,53.36
2019-06-27T16:37:06.810Z,52.89
2019-06-27T16:39:38.780Z,52.84
2019-06-27T16:42:05.603Z,52.48
2019-06-27T16:44:33.736Z,52.75
2019-06-27T16:47:02.320Z,52.09
2019-06-27T16:49:30.536Z,51.33
2019-06-27T16:51:58.790Z,51.04
2019-06-27T16:54:27.051Z,50.71
2019-06-27T16:56:55.281Z,50.80
2019-06-27T16:59:23.453Z,50.66
2019-06-27T17:01:51.573Z,50.52
2019-06-27T17:04:19.902Z,50.01
2019-06-27T17:06:48.221Z,50.12
2019-06-27T17:09:16.355Z,50.20
2019-06-27T17:11:44.520Z,50.20
2019-06-27T17:14:13.849Z,50.64
2019-06-27T17:16:43.170Z,50.82
2019-06-27T17:19:11.524Z,50.66
2019-06-27T17:21:39.725Z,50.63
2019-06-27T17:24:07.888Z,49.98
2019-06-27T17:26:37.358Z,50.14
2019-06-27T17:29:05.490Z,50.37
2019-06-27T17:31:36.790Z,50.84
2019-06-27T17:34:05.219Z,50.83
2019-06-27T17:36:33.687Z,51.20
2019-06-27T17:39:02.245Z,51.02
2019-06-27T17:41:30.811Z,51.57
2019-06-27T17:43:59.133Z,51.47
2019-06-27T17:46:27.361Z,51.38
2019-06-27T17:48:55.907Z,52.45
2019-06-27T17:51:24.199Z,52.33
2019-06-27T17:53:52.963Z,52.60
2019-06-27T17:56:21.197Z,52.65
2019-06-27T17:58:50.081Z,52.80
2019-06-27T18:01:18.737Z,52.53
2019-06-27T18:03:46.931Z,52.47
2019-06-27T18:06:15.346Z,52.40
2019-06-27T18:08:43.583Z,52.62
2019-06-27T18:11:11.995Z,52.92
2019-06-27T18:13:41.220Z,52.96
2019-06-27T18:16:09.451Z,52.79
2019-06-27T18:18:37.664Z,52.92
2019-06-27T18:21:05.966Z,53.50
2019-06-27T18:23:34.473Z,53.59
2019-06-27T18:26:03.259Z,53.33
2019-06-27T18:28:31.411Z,53.84
2019-06-27T18:30:59.999Z,54.26
2019-06-27T18:33:29.046Z,54.37
2019-06-27T18:35:57.228Z,54.55
2019-06-27T18:38:25.448Z,54.94
2019-06-27T18:40:53.765Z,54.74
2019-06-27T18:43:21.889Z,54.99
2019-06-27T18:45:50.417Z,55.25
2019-06-27T18:48:18.820Z,55.12
2019-06-27T18:50:48.150Z,55.70
2019-06-27T18:53:16.914Z,55.83
2019-06-27T18:55:45.083Z,56.16
2019-06-27T18:58:13.700Z,56.92
2019-06-27T19:00:42.022Z,56.48
2019-06-27T19:03:10.356Z,56.33
2019-06-27T19:05:38.472Z,56.34
2019-06-27T19:08:07.264Z,56.04
2019-06-27T19:10:35.587Z,56.28
2019-06-27T19:13:04.283Z,56.38
2019-06-27T19:15:33.941Z,56.19
2019-06-27T19:18:02.472Z,56.33
2019-06-27T19:20:45.240Z,56.63
2019-06-27T19:23:33.048Z,57.00
2019-06-27T19:26:01.422Z,57.04
2019-06-27T19:28:31.652Z,57.25
2019-06-27T19:30:59.782Z,57.38
2019-06-27T19:33:28.048Z,57.45
2019-06-27T19:35:56.598Z,57.17
2019-06-27T19:38:24.789Z,57.14
2019-06-27T19:40:53.462Z,56.95
2019-06-27T19:43:27.628Z,56.76
2019-06-27T19:45:52.148Z,56.04
2019-06-27T19:48:21.483Z,56.13
2019-06-27T19:50:49.914Z,56.38
2019-06-27T19:53:18.211Z,56.75
2019-06-27T19:55:46.645Z,56.57
2019-06-27T19:58:15.149Z,56.76
2019-06-27T20:00:43.493Z,56.99
2019-06-27T20:03:11.946Z,56.94
2019-06-27T20:05:40.239Z,57.15
2019-06-27T20:08:18.491Z,57.10
2019-06-27T20:10:39.353Z,57.15
2019-06-27T20:13:07.486Z,57.06
2019-06-27T20:15:35.690Z,57.08
2019-06-27T20:18:04.159Z,56.89
2019-06-27T20:20:33.169Z,57.12
2019-06-27T20:23:01.364Z,56.66
2019-06-27T20:25:29.843Z,56.63
2019-06-27T20:27:58.321Z,56.76
2019-06-27T20:30:26.595Z,56.84
2019-06-27T20:32:54.920Z,56.48
2019-06-27T20:35:23.273Z,56.99
2019-06-27T20:37:51.786Z,56.94
2019-06-27T20:40:20.506Z,56.84
2019-06-27T20:42:48.702Z,57.27
2019-06-27T20:45:18.813Z,57.36
2019-06-27T20:47:49.059Z,57.37
2019-06-27T20:50:17.295Z,57.41
2019-06-27T20:52:45.676Z,58.00
2019-06-27T20:55:13.820Z,57.93
2019-06-27T20:57:42.673Z,57.93
2019-06-27T21:00:11.330Z,58.22
2019-06-27T21:02:39.858Z,58.27
2019-06-27T21:05:08.601Z,58.42
2019-06-27T21:07:36.781Z,58.61
2019-06-27T21:10:05.985Z,58.46
2019-06-27T21:12:34.244Z,58.37
2019-06-27T21:15:03.422Z,58.76
2019-06-27T21:17:31.597Z,58.65
2019-06-27T21:19:59.767Z,58.95
2019-06-27T21:22:28.502Z,59.19
2019-06-27T21:24:56.813Z,59.04
2019-06-27T21:27:25.032Z,59.14
2019-06-27T21:29:53.232Z,59.78
2019-06-27T21:32:31.364Z,59.39
2019-06-27T21:34:52.262Z,59.76
2019-06-27T21:37:20.814Z,60.68
2019-06-27T21:39:48.937Z,59.61
2019-06-27T21:42:17.531Z,59.91
2019-06-27T21:44:47.761Z,59.63
2019-06-27T21:47:16.044Z,59.51
2019-06-27T21:49:44.536Z,59.66
2019-06-27T21:52:13.094Z,59.46
2019-06-27T21:54:41.291Z,59.55
2019-06-27T21:57:09.737Z,59.81
2019-06-27T21:59:38.341Z,59.66
2019-06-27T22:02:07.331Z,59.97
2019-06-27T22:04:35.631Z,59.98
2019-06-27T22:07:04.128Z,60.35
2019-06-27T22:09:33.094Z,60.88
2019-06-27T22:12:01.435Z,60.36
2019-06-27T22:14:29.716Z,60.23
2019-06-27T22:16:58.139Z,59.96
2019-06-27T22:19:26.362Z,59.86
2019-06-27T22:21:54.479Z,59.83
2019-06-27T22:24:22.941Z,59.76
2019-06-27T22:26:51.231Z,59.66
2019-06-27T22:29:19.353Z,59.50
2019-06-27T22:31:49.035Z,60.22
2019-06-27T22:34:17.609Z,59.76
2019-06-27T22:36:46.449Z,59.42
2019-06-27T22:39:40.277Z,59.25
2019-06-27T22:42:21.669Z,59.56
2019-06-27T22:45:08.454Z,59.98
2019-06-27T22:47:55.491Z,60.00
2019-06-27T22:50:36.347Z,59.89
2019-06-27T22:53:11.733Z,59.85
2019-06-27T22:55:40.357Z,59.97
2019-06-27T22:58:08.545Z,60.47
2019-06-27T23:00:37.180Z,61.15
2019-06-27T23:03:05.444Z,60.74
2019-06-27T23:05:33.670Z,60.48
2019-06-27T23:08:03.180Z,59.98
2019-06-27T23:10:31.586Z,59.51
2019-06-27T23:12:59.823Z,59.56
2019-06-27T23:15:28.135Z,59.48
2019-06-27T23:17:56.254Z,59.85
2019-06-27T23:20:24.455Z,59.54
2019-06-27T23:22:53.099Z,59.41
2019-06-27T23:25:21.351Z,59.29
2019-06-27T23:27:49.487Z,59.45
2019-06-27T23:30:18.325Z,58.96
2019-06-27T23:32:46.628Z,58.62
2019-06-27T23:35:15.610Z,58.67
2019-06-27T23:37:43.895Z,58.60
2019-06-27T23:40:14.490Z,58.71
2019-06-27T23:42:42.358Z,58.73
2019-06-27T23:45:11.432Z,58.58
2019-06-27T23:47:40.071Z,58.63
2019-06-27T23:50:08.806Z,58.46
2019-06-27T23:52:37.773Z,58.55
2019-06-27T23:55:06.799Z,59.25
2019-06-27T23:57:35.026Z,58.93
